Norwegian Dream — C6LG5 — position and weather

sailwx.info

Track history (hours):
 
Tides and Currents Weather Stations Pressure Air Temp Water Temp Dewpoint Dewpoint Depression Visibility Wind Speed Wind Dir Waves Ship Positions

Norwegian Dream

Operator: Norwegian Cruise Line

Last reported at 2017-Jun-28 19:52 UTC. Time now 2017-Jun-29 01:57 UTC.
Position N 01°53' E 102°22'.

Type: Ship. MMSI: 308272000.

Date/timePositionNaut miles runAvg speedWind from/ knotsBaromVisibWave heightAir tempDewpointWater temp
2017-Jun-28 19:52N 01°53' E 102°22'617.1
2017-Jun-28 19:30N 01°50' E 102°28'1216.5
2017-Jun-28 18:47N 01°45' E 102°39'515.9
2017-Jun-28 18:26N 01°43' E 102°44'818.7
2017-Jun-28 18:00N 01°36' E 102°48'5015.8 100 / 81011.010.8 28.023.926.0
2017-Jun-28 14:50N 01°12' E 103°32'1416.9
2017-Jun-28 14:00N 01°09' E 103°45'5 9.7
2017-Jun-28 13:30N 01°13' E 103°48'3 5.6
2017-Jun-28 13:01N 01°16' E 103°49'0 0.5
2017-Jun-28 12:21N 01°16' E 103°49'0 0.0
2017-Jun-28 11:55N 01°16' E 103°49'0 0.0
2017-Jun-28 11:07N 01°16' E 103°49'0 0.0
2017-Jun-28 10:57N 01°16' E 103°49'0 0.0
2017-Jun-28 09:39N 01°16' E 103°49'0 0.0
2017-Jun-28 09:19N 01°16' E 103°49'0 0.0
2017-Jun-28 08:57N 01°16' E 103°49'0 0.0
2017-Jun-28 08:19N 01°16' E 103°49'0 0.0
2017-Jun-28 07:55N 01°16' E 103°49'0 0.0
2017-Jun-28 07:25N 01°16' E 103°49'0 0.0
2017-Jun-28 06:37N 01°16' E 103°49'0 0.0
2017-Jun-28 06:28N 01°16' E 103°49'0 0.0
2017-Jun-28 05:46N 01°16' E 103°49'0 0.0
2017-Jun-28 05:29N 01°16' E 103°49'1 2.4
2017-Jun-28 05:00N 01°15' E 103°48'4 8.6
2017-Jun-28 04:30N 01°12' E 103°50'510.9
2017-Jun-28 04:00N 01°08' E 103°46'510.7
2017-Jun-28 03:30N 01°05' E 103°42'510.2
2017-Jun-28 03:00N 01°04' E 103°37'714.3
2017-Jun-28 02:30N 01°08' E 103°31'1016.0
2017-Jun-28 01:55N 01°12' E 103°23'12816.2
2017-Jun-27 18:00N 02°24' E 101°36'176 7.6 140 / 81012.010.8 29.022.027.0
2017-Jun-26 18:55N 04°57' E 100°09'1417.0
2017-Jun-26 18:06N 05°11' E 100°05'548.9
2017-Jun-26 18:00N 05°12' E 100°00'5155.0 110 / 121011.010.8 29.026.324.0
2017-Jun-26 17:58N 05°13' E 100°05'816.7
2017-Jun-26 17:29N 05°21' E 100°04'1414.5
2017-Jun-26 16:32N 05°34' E 100°09'015.3
2017-Jun-26 16:30N 05°34' E 100°10'1013.0
2017-Jun-26 15:46N 05°31' E 100°19'611.9
2017-Jun-26 15:17N 05°25' E 100°21'0 0.7
2017-Jun-26 14:55N 05°25' E 100°21'0 0.0
2017-Jun-26 09:37N 05°25' E 100°21'0 0.0
2017-Jun-26 09:31N 05°25' E 100°21'0 0.0
2017-Jun-26 08:55N 05°25' E 100°21'0 0.0
2017-Jun-26 08:25N 05°25' E 100°21'0 0.0
2017-Jun-26 07:55N 05°25' E 100°21'0 0.0
2017-Jun-26 07:27N 05°25' E 100°21'2 5.0
2017-Jun-26 07:00N 05°27' E 100°21'713.5
2017-Jun-26 06:27N 05°33' E 100°16'613.4
2017-Jun-26 06:00N 05°35' E 100°10'1112.2
2017-Jun-26 05:06N 05°25' E 100°05'113.9
2017-Jun-26 04:59N 05°24' E 100°05'1013.8
2017-Jun-26 04:17N 05°14' E 100°05'513.5
2017-Jun-26 03:54N 05°09' E 100°06'24316.0
2017-Jun-25 12:43N 01°51' E 102°27'1516.3
2017-Jun-25 11:48N 01°44' E 102°40'6218.3
2017-Jun-25 08:25N 01°11' E 103°33'716.1
2017-Jun-25 08:00N 01°12' E 103°39'612.4
2017-Jun-25 07:30N 01°16' E 103°44'5 9.5
2017-Jun-25 07:00N 01°16' E 103°49'0 0.3
2017-Jun-25 06:20N 01°16' E 103°49'0 0.0
2017-Jun-25 05:56N 01°16' E 103°49'0 0.0
2017-Jun-25 05:26N 01°16' E 103°49'0 0.0
2017-Jun-25 03:47N 01°16' E 103°49'0 0.0
2017-Jun-25 03:22N 01°16' E 103°49'0 0.0
2017-Jun-25 02:58N 01°16' E 103°49'0 0.0
2017-Jun-25 02:30N 01°16' E 103°49'0 0.0
2017-Jun-25 01:58N 01°16' E 103°49'0 0.0
2017-Jun-25 01:30N 01°16' E 103°49'1 1.4
2017-Jun-25 01:00N 01°16' E 103°48'4 7.0
2017-Jun-25 00:30N 01°12' E 103°49'5 9.4
2017-Jun-25 00:00N 01°09' E 103°46'611.4
2017-Jun-24 23:30N 01°05' E 103°42'4 8.6
2017-Jun-24 23:00N 01°03' E 103°38'5 8.8
2017-Jun-24 22:28N 01°06' E 103°34'4 8.9
2017-Jun-24 22:00N 01°08' E 103°30'5 9.1
2017-Jun-24 21:27N 01°10' E 103°26'5 9.1
2017-Jun-24 20:55N 01°13' E 103°22'3010.3
2017-Jun-24 18:00N 01°24' E 102°54'13 8.0 140 / 101011.010.8 29.026.323.0
2017-Jun-24 16:22N 01°36' E 102°49'27 2.3
2017-Jun-24 04:33N 01°51' E 102°26'1 6.1
2017-Jun-24 04:25N 01°50' E 102°27'14 4.8
2017-Jun-24 01:31N 01°45' E 102°40'010.3
2017-Jun-24 01:30N 01°45' E 102°40'2 3.2
2017-Jun-24 00:59N 01°44' E 102°41'2 3.3
2017-Jun-24 00:19N 01°43' E 102°43'1 3.4
2017-Jun-24 00:00N 01°43' E 102°44'3 4.0
2017-Jun-23 23:22N 01°41' E 102°47'34 6.4
2017-Jun-23 18:00N 01°18' E 103°12'22 6.6 190 / 81011.010.8 27.027.023.0
2017-Jun-23 14:42N 01°12' E 103°33'6 8.8
2017-Jun-23 14:00N 01°11' E 103°39'4 8.7
2017-Jun-23 13:30N 01°09' E 103°43'4 7.5
2017-Jun-23 13:00N 01°10' E 103°46'4 7.3
2017-Jun-23 12:30N 01°13' E 103°48'3 6.4
2017-Jun-23 12:00N 01°16' E 103°49'0 0.0
2017-Jun-23 11:28N 01°16' E 103°49'0 0.0
2017-Jun-23 10:58N 01°16' E 103°49'0 0.0
2017-Jun-23 10:22N 01°16' E 103°49'0 0.0
2017-Jun-23 09:58N 01°16' E 103°49'0 0.0
2017-Jun-23 09:26N 01°16' E 103°49'0 0.0
2017-Jun-23 08:58N 01°16' E 103°49'0 0.0
2017-Jun-23 08:14N 01°16' E 103°49'0 0.0
2017-Jun-23 07:56N 01°16' E 103°49'0 0.0
2017-Jun-23 07:26N 01°16' E 103°49'0 0.0
2017-Jun-23 06:52N 01°16' E 103°49'0 0.0
2017-Jun-23 06:28N 01°16' E 103°49'0 0.0
2017-Jun-23 05:58N 01°16' E 103°49'0 0.0
2017-Jun-23 04:38N 01°16' E 103°49'0 0.0
2017-Jun-23 04:23N 01°16' E 103°49'0 0.0
2017-Jun-23 03:47N 01°16' E 103°49'0 0.4
2017-Jun-23 03:30N 01°16' E 103°49'2 4.3
2017-Jun-23 03:00N 01°15' E 103°47'4 7.7
2017-Jun-23 02:30N 01°12' E 103°50'510.3
2017-Jun-23 02:00N 01°08' E 103°46'510.8
2017-Jun-23 01:31N 01°05' E 103°42'4 7.3
2017-Jun-23 00:59N 01°03' E 103°39'4 8.1
2017-Jun-23 00:30N 01°04' E 103°35'5 8.3
2017-Jun-22 23:57N 01°07' E 103°32'4 8.1
2017-Jun-22 23:28N 01°09' E 103°28'45 8.3
2017-Jun-22 18:00N 01°30' E 102°48'63 2.5 120 / 81012.010.8 29.026.323.0
2017-Jun-21 16:41N 01°12' E 103°49'311.0
2017-Jun-21 16:23N 01°15' E 103°48'1 2.5
2017-Jun-21 15:47N 01°16' E 103°49'0 0.0
2017-Jun-21 14:35N 01°16' E 103°49'0 0.0
2017-Jun-21 14:17N 01°16' E 103°49'0 0.0
2017-Jun-21 11:59N 01°16' E 103°49'0 0.0
2017-Jun-21 11:17N 01°16' E 103°49'0 0.0
2017-Jun-21 10:59N 01°16' E 103°49'0 0.0
2017-Jun-21 10:29N 01°16' E 103°49'0 0.5
2017-Jun-21 09:59N 01°16' E 103°49'4 8.3
2017-Jun-21 09:29N 01°15' E 103°45'22714.7
2017-Jun-20 18:00N 03°12' E 100°30'153 6.4 240 / 21011.010.8 29.022.026.0
2017-Jun-19 18:00N 05°42' E 100°00'2110.0 330 / 61012.010.8 29.027.727.0
2017-Jun-19 15:54N 05°31' E 100°18'512.7
2017-Jun-19 15:29N 05°27' E 100°21'2 3.6
2017-Jun-19 15:00N 05°25' E 100°21'0 0.0
2017-Jun-19 13:53N 05°25' E 100°21'0 0.0
2017-Jun-19 12:48N 05°25' E 100°21'0 0.0
2017-Jun-19 12:29N 05°25' E 100°21'0 0.0
2017-Jun-19 12:00N 05°25' E 100°21'0 0.0
2017-Jun-19 11:12N 05°25' E 100°21'0 0.0
2017-Jun-19 10:59N 05°25' E 100°21'0 0.0
2017-Jun-19 10:30N 05°25' E 100°21'0 0.0
2017-Jun-19 10:00N 05°25' E 100°21'0 0.0
2017-Jun-19 09:30N 05°25' E 100°21'0 0.0
2017-Jun-19 08:59N 05°25' E 100°21'0 0.0
2017-Jun-19 08:30N 05°25' E 100°21'0 0.0
2017-Jun-19 07:58N 05°25' E 100°21'0 0.1
2017-Jun-19 07:30N 05°25' E 100°21'3 6.6
2017-Jun-19 07:01N 05°28' E 100°21'1011.8
2017-Jun-19 06:10N 05°34' E 100°13'  
Track history (hours):
 
Tides and Currents Weather Stations Pressure Air Temp Water Temp Dewpoint Dewpoint Depression Visibility Wind Speed Wind Dir Waves Ship Positions

Norwegian Dream

Operator: Norwegian Cruise Line

Last reported at 2017-Jun-28 19:52 UTC. Time now 2017-Jun-29 01:57 UTC.
Position N 01°53' E 102°22'.

Type: Ship. MMSI: 308272000.

Date/timePositionNaut miles runAvg speedWind from/ knotsBaromVisibWave heightAir tempDewpointWater temp
2017-Jun-28 19:52N 01°53' E 102°22'617.1
2017-Jun-28 19:30N 01°50' E 102°28'1216.5
2017-Jun-28 18:47N 01°45' E 102°39'515.9
2017-Jun-28 18:26N 01°43' E 102°44'818.7
2017-Jun-28 18:00N 01°36' E 102°48'5015.8 100 / 81011.010.8 28.023.926.0
2017-Jun-28 14:50N 01°12' E 103°32'1416.9
2017-Jun-28 14:00N 01°09' E 103°45'5 9.7
2017-Jun-28 13:30N 01°13' E 103°48'3 5.6
2017-Jun-28 13:01N 01°16' E 103°49'0 0.5
2017-Jun-28 12:21N 01°16' E 103°49'0 0.0
2017-Jun-28 11:55N 01°16' E 103°49'0 0.0
2017-Jun-28 11:07N 01°16' E 103°49'0 0.0
2017-Jun-28 10:57N 01°16' E 103°49'0 0.0
2017-Jun-28 09:39N 01°16' E 103°49'0 0.0
2017-Jun-28 09:19N 01°16' E 103°49'0 0.0
2017-Jun-28 08:57N 01°16' E 103°49'0 0.0
2017-Jun-28 08:19N 01°16' E 103°49'0 0.0
2017-Jun-28 07:55N 01°16' E 103°49'0 0.0
2017-Jun-28 07:25N 01°16' E 103°49'0 0.0
2017-Jun-28 06:37N 01°16' E 103°49'0 0.0
2017-Jun-28 06:28N 01°16' E 103°49'0 0.0
2017-Jun-28 05:46N 01°16' E 103°49'0 0.0
2017-Jun-28 05:29N 01°16' E 103°49'1 2.4
2017-Jun-28 05:00N 01°15' E 103°48'4 8.6
2017-Jun-28 04:30N 01°12' E 103°50'510.9
2017-Jun-28 04:00N 01°08' E 103°46'510.7
2017-Jun-28 03:30N 01°05' E 103°42'510.2
2017-Jun-28 03:00N 01°04' E 103°37'714.3
2017-Jun-28 02:30N 01°08' E 103°31'1016.0
2017-Jun-28 01:55N 01°12' E 103°23'12816.2
2017-Jun-27 18:00N 02°24' E 101°36'176 7.6 140 / 81012.010.8 29.022.027.0
2017-Jun-26 18:55N 04°57' E 100°09'1417.0
2017-Jun-26 18:06N 05°11' E 100°05'548.9
2017-Jun-26 18:00N 05°12' E 100°00'5155.0 110 / 121011.010.8 29.026.324.0
2017-Jun-26 17:58N 05°13' E 100°05'816.7
2017-Jun-26 17:29N 05°21' E 100°04'1414.5
2017-Jun-26 16:32N 05°34' E 100°09'015.3
2017-Jun-26 16:30N 05°34' E 100°10'1013.0
2017-Jun-26 15:46N 05°31' E 100°19'611.9
2017-Jun-26 15:17N 05°25' E 100°21'0 0.7
2017-Jun-26 14:55N 05°25' E 100°21'0 0.0
2017-Jun-26 09:37N 05°25' E 100°21'0 0.0
2017-Jun-26 09:31N 05°25' E 100°21'0 0.0
2017-Jun-26 08:55N 05°25' E 100°21'0 0.0
2017-Jun-26 08:25N 05°25' E 100°21'0 0.0
2017-Jun-26 07:55N 05°25' E 100°21'0 0.0
2017-Jun-26 07:27N 05°25' E 100°21'2 5.0
2017-Jun-26 07:00N 05°27' E 100°21'713.5
2017-Jun-26 06:27N 05°33' E 100°16'613.4
2017-Jun-26 06:00N 05°35' E 100°10'1112.2
2017-Jun-26 05:06N 05°25' E 100°05'113.9
2017-Jun-26 04:59N 05°24' E 100°05'1013.8
2017-Jun-26 04:17N 05°14' E 100°05'513.5
2017-Jun-26 03:54N 05°09' E 100°06'24316.0
2017-Jun-25 12:43N 01°51' E 102°27'1516.3
2017-Jun-25 11:48N 01°44' E 102°40'6218.3
2017-Jun-25 08:25N 01°11' E 103°33'716.1
2017-Jun-25 08:00N 01°12' E 103°39'612.4
2017-Jun-25 07:30N 01°16' E 103°44'5 9.5
2017-Jun-25 07:00N 01°16' E 103°49'0 0.3
2017-Jun-25 06:20N 01°16' E 103°49'0 0.0
2017-Jun-25 05:56N 01°16' E 103°49'0 0.0
2017-Jun-25 05:26N 01°16' E 103°49'0 0.0
2017-Jun-25 03:47N 01°16' E 103°49'0 0.0
2017-Jun-25 03:22N 01°16' E 103°49'0 0.0
2017-Jun-25 02:58N 01°16' E 103°49'0 0.0
2017-Jun-25 02:30N 01°16' E 103°49'0 0.0
2017-Jun-25 01:58N 01°16' E 103°49'0 0.0
2017-Jun-25 01:30N 01°16' E 103°49'1 1.4
2017-Jun-25 01:00N 01°16' E 103°48'4 7.0
2017-Jun-25 00:30N 01°12' E 103°49'5 9.4
2017-Jun-25 00:00N 01°09' E 103°46'611.4
2017-Jun-24 23:30N 01°05' E 103°42'4 8.6
2017-Jun-24 23:00N 01°03' E 103°38'5 8.8
2017-Jun-24 22:28N 01°06' E 103°34'4 8.9
2017-Jun-24 22:00N 01°08' E 103°30'5 9.1
2017-Jun-24 21:27N 01°10' E 103°26'5 9.1
2017-Jun-24 20:55N 01°13' E 103°22'3010.3
2017-Jun-24 18:00N 01°24' E 102°54'13 8.0 140 / 101011.010.8 29.026.323.0
2017-Jun-24 16:22N 01°36' E 102°49'27 2.3
2017-Jun-24 04:33N 01°51' E 102°26'1 6.1
2017-Jun-24 04:25N 01°50' E 102°27'14 4.8
2017-Jun-24 01:31N 01°45' E 102°40'010.3
2017-Jun-24 01:30N 01°45' E 102°40'2 3.2
2017-Jun-24 00:59N 01°44' E 102°41'2 3.3
2017-Jun-24 00:19N 01°43' E 102°43'1 3.4
2017-Jun-24 00:00N 01°43' E 102°44'3 4.0
2017-Jun-23 23:22N 01°41' E 102°47'34 6.4
2017-Jun-23 18:00N 01°18' E 103°12'22 6.6 190 / 81011.010.8 27.027.023.0
2017-Jun-23 14:42N 01°12' E 103°33'6 8.8
2017-Jun-23 14:00N 01°11' E 103°39'4 8.7
2017-Jun-23 13:30N 01°09' E 103°43'4 7.5
2017-Jun-23 13:00N 01°10' E 103°46'4 7.3
2017-Jun-23 12:30N 01°13' E 103°48'3 6.4
2017-Jun-23 12:00N 01°16' E 103°49'0 0.0
2017-Jun-23 11:28N 01°16' E 103°49'0 0.0
2017-Jun-23 10:58N 01°16' E 103°49'0 0.0
2017-Jun-23 10:22N 01°16' E 103°49'0 0.0
2017-Jun-23 09:58N 01°16' E 103°49'0 0.0
2017-Jun-23 09:26N 01°16' E 103°49'0 0.0
2017-Jun-23 08:58N 01°16' E 103°49'0 0.0
2017-Jun-23 08:14N 01°16' E 103°49'0 0.0
2017-Jun-23 07:56N 01°16' E 103°49'0 0.0
2017-Jun-23 07:26N 01°16' E 103°49'0 0.0
2017-Jun-23 06:52N 01°16' E 103°49'0 0.0
2017-Jun-23 06:28N 01°16' E 103°49'0 0.0
2017-Jun-23 05:58N 01°16' E 103°49'0 0.0
2017-Jun-23 04:38N 01°16' E 103°49'0 0.0
2017-Jun-23 04:23N 01°16' E 103°49'0 0.0
2017-Jun-23 03:47N 01°16' E 103°49'0 0.4
2017-Jun-23 03:30N 01°16' E 103°49'2 4.3
2017-Jun-23 03:00N 01°15' E 103°47'4 7.7
2017-Jun-23 02:30N 01°12' E 103°50'510.3
2017-Jun-23 02:00N 01°08' E 103°46'510.8
2017-Jun-23 01:31N 01°05' E 103°42'4 7.3
2017-Jun-23 00:59N 01°03' E 103°39'4 8.1
2017-Jun-23 00:30N 01°04' E 103°35'5 8.3
2017-Jun-22 23:57N 01°07' E 103°32'4 8.1
2017-Jun-22 23:28N 01°09' E 103°28'45 8.3
2017-Jun-22 18:00N 01°30' E 102°48'63 2.5 120 / 81012.010.8 29.026.323.0
2017-Jun-21 16:41N 01°12' E 103°49'311.0
2017-Jun-21 16:23N 01°15' E 103°48'1 2.5
2017-Jun-21 15:47N 01°16' E 103°49'0 0.0
2017-Jun-21 14:35N 01°16' E 103°49'0 0.0
2017-Jun-21 14:17N 01°16' E 103°49'0 0.0
2017-Jun-21 11:59N 01°16' E 103°49'0 0.0
2017-Jun-21 11:17N 01°16' E 103°49'0 0.0
2017-Jun-21 10:59N 01°16' E 103°49'0 0.0
2017-Jun-21 10:29N 01°16' E 103°49'0 0.5
2017-Jun-21 09:59N 01°16' E 103°49'4 8.3
2017-Jun-21 09:29N 01°15' E 103°45'22714.7
2017-Jun-20 18:00N 03°12' E 100°30'153 6.4 240 / 21011.010.8 29.022.026.0
2017-Jun-19 18:00N 05°42' E 100°00'2110.0 330 / 61012.010.8 29.027.727.0
2017-Jun-19 15:54N 05°31' E 100°18'512.7
2017-Jun-19 15:29N 05°27' E 100°21'2 3.6
2017-Jun-19 15:00N 05°25' E 100°21'0 0.0
2017-Jun-19 13:53N 05°25' E 100°21'0 0.0
2017-Jun-19 12:48N 05°25' E 100°21'0 0.0
2017-Jun-19 12:29N 05°25' E 100°21'0 0.0
2017-Jun-19 12:00N 05°25' E 100°21'0 0.0
2017-Jun-19 11:12N 05°25' E 100°21'0 0.0
2017-Jun-19 10:59N 05°25' E 100°21'0 0.0
2017-Jun-19 10:30N 05°25' E 100°21'0 0.0
2017-Jun-19 10:00N 05°25' E 100°21'0 0.0
2017-Jun-19 09:30N 05°25' E 100°21'0 0.0
2017-Jun-19 08:59N 05°25' E 100°21'0 0.0
2017-Jun-19 08:30N 05°25' E 100°21'0 0.0
2017-Jun-19 07:58N 05°25' E 100°21'0 0.1
2017-Jun-19 07:30N 05°25' E 100°21'3 6.6
2017-Jun-19 07:01N 05°28' E 100°21'1011.8
2017-Jun-19 06:10N 05°34' E 100°13'  

Dump ship's entire track history